Time;durP1;ratioP1;P1;durP2;ratioP2;P2;SDS_P1;SDS_P2;PMS_P1;PMS_P2;Temp;Humidity;BMP_temperature;BMP_pressure;BME280_temperature;BME280_humidity;BME280_pressure;Samples;Min_cycle;Max_cycle;Signal;HPM_P1;HPM_P2
2023/06/07 00:01:52;;;;;;;4.40;4.00;;;26.00;46.70;;;;;;5033921;28;20963;-69
2023/06/07 00:04:20;;;;;;;3.50;3.20;;;26.00;46.70;;;;;;5042191;28;20980;-68
2023/06/07 00:06:56;;;;;;;4.10;3.80;;;26.00;46.70;;;;;;5013915;28;20488;-68
2023/06/07 00:09:25;;;;;;;3.40;3.10;;;26.00;46.70;;;;;;5039474;28;20463;-68
2023/06/07 00:11:53;;;;;;;3.30;3.00;;;26.00;46.70;;;;;;5018640;28;20448;-67
2023/06/07 00:14:21;;;;;;;3.67;3.37;;;26.00;46.80;;;;;;5042225;28;20836;-67
2023/06/07 00:16:50;;;;;;;2.70;2.50;;;26.00;46.80;;;;;;5030626;28;20464;-68
2023/06/07 00:19:21;;;;;;;3.13;2.90;;;26.00;47.00;;;;;;5025787;28;20801;-68
2023/06/07 00:21:51;;;;;;;3.10;2.80;;;26.00;47.20;;;;;;5039764;28;20450;-68
2023/06/07 00:24:19;;;;;;;3.70;3.40;;;26.00;47.40;;;;;;5033645;28;22188;-69
2023/06/07 00:26:48;;;;;;;4.57;3.30;;;25.90;47.00;;;;;;5026302;28;20514;-69
2023/06/07 00:29:17;;;;;;;2.80;2.60;;;26.00;47.20;;;;;;5032134;28;21191;-67
2023/06/07 00:31:45;;;;;;;3.70;3.40;;;26.00;47.30;;;;;;5039079;28;20451;-68
2023/06/07 00:34:13;;;;;;;4.03;3.70;;;26.00;47.10;;;;;;5019144;28;20475;-68
2023/06/07 00:36:42;;;;;;;4.73;3.33;;;26.00;47.10;;;;;;5039573;28;20459;-67
2023/06/07 00:39:22;;;;;;;3.93;3.50;;;25.90;46.90;;;;;;5025002;28;20436;-68
2023/06/07 00:41:51;;;;;;;3.97;3.57;;;26.00;47.00;;;;;;5018786;28;20447;-67
2023/06/07 00:44:19;;;;;;;3.53;3.23;;;25.90;47.00;;;;;;5026314;28;20513;-68
2023/06/07 00:46:47;;;;;;;4.30;3.90;;;25.90;46.90;;;;;;5026076;28;20541;-69
2023/06/07 00:49:16;;;;;;;4.90;4.40;;;25.90;46.80;;;;;;5040485;28;20548;-69
2023/06/07 00:51:47;;;;;;;3.60;3.30;;;25.90;46.80;;;;;;5041421;28;20877;-68
2023/06/07 00:54:17;;;;;;;4.00;3.63;;;25.90;46.90;;;;;;5010137;28;21062;-69
2023/06/07 00:56:49;;;;;;;3.90;3.60;;;25.90;47.00;;;;;;5044195;28;20470;-67
2023/06/07 00:59:18;;;;;;;2.90;2.60;;;25.90;47.00;;;;;;5042916;28;20942;-69
2023/06/07 01:01:51;;;;;;;3.53;3.23;;;25.90;47.00;;;;;;5040626;28;20538;-68
2023/06/07 01:04:21;;;;;;;4.83;3.40;;;25.90;47.00;;;;;;5034089;28;21015;-69
2023/06/07 01:06:52;;;;;;;3.53;3.23;;;25.90;47.00;;;;;;5039147;28;20475;-68
2023/06/07 01:09:21;;;;;;;4.10;3.80;;;25.90;47.20;;;;;;5040387;28;20540;-69
2023/06/07 01:11:53;;;;;;;4.17;3.57;;;25.90;47.20;;;;;;5025936;28;20461;-68
2023/06/07 01:14:22;;;;;;;4.90;4.17;;;25.90;47.20;;;;;;5025108;28;20680;-68
2023/06/07 01:16:53;;;;;;;3.90;3.57;;;25.90;47.30;;;;;;5031964;28;20507;-68
2023/06/07 01:19:24;;;;;;;4.20;3.60;;;25.80;47.20;;;;;;5038433;28;20555;-69
2023/06/07 01:21:57;;;;;;;4.00;3.67;;;25.90;47.20;;;;;;5023899;28;20455;-68
2023/06/07 01:24:29;;;;;;;3.50;3.20;;;25.90;47.20;;;;;;5014981;28;20932;-68
2023/06/07 01:26:59;;;;;;;3.77;3.40;;;25.80;47.10;;;;;;5031666;28;20483;-68
2023/06/07 01:29:27;;;;;;;4.63;3.80;;;25.80;47.10;;;;;;5020718;28;21010;-68
2023/06/07 01:31:58;;;;;;;3.90;3.57;;;25.90;48.30;;;;;;5020577;28;20456;-69
2023/06/07 01:34:27;;;;;;;3.60;3.17;;;25.80;47.10;;;;;;5034918;28;20537;-69
2023/06/07 01:36:56;;;;;;;3.67;3.20;;;25.90;47.40;;;;;;5041725;28;20967;-68
2023/06/07 01:39:27;;;;;;;3.40;3.10;;;25.90;47.20;;;;;;5031803;28;20511;-69
2023/06/07 01:41:58;;;;;;;4.10;3.70;;;25.80;47.20;;;;;;5024328;28;20442;-67
2023/06/07 01:44:27;;;;;;;4.13;3.20;;;25.80;47.20;;;;;;5032953;28;20476;-68
2023/06/07 01:46:56;;;;;;;3.57;3.27;;;25.80;47.30;;;;;;5014839;28;20482;-68
2023/06/07 01:49:24;;;;;;;3.10;2.90;;;25.80;47.30;;;;;;5017336;28;20544;-68
2023/06/07 01:51:53;;;;;;;3.50;3.20;;;25.80;47.20;;;;;;5037380;28;20474;-68
2023/06/07 01:54:21;;;;;;;3.00;2.80;;;25.80;47.40;;;;;;5027417;28;21195;-68
2023/06/07 01:57:01;;;;;;;3.70;3.40;;;25.80;47.40;;;;;;5026676;28;20455;-68
2023/06/07 01:59:38;;;;;;;3.53;3.10;;;25.80;47.30;;;;;;5033125;28;20538;-68
2023/06/07 02:02:14;;;;;;;3.50;3.20;;;25.80;47.30;;;;;;5040520;28;20460;-68
2023/06/07 02:04:46;;;;;;;3.40;3.10;;;25.80;47.30;;;;;;5030430;28;20830;-69
2023/06/07 02:07:23;;;;;;;3.40;3.10;;;25.80;47.50;;;;;;5026976;28;20521;-68
2023/06/07 02:09:53;;;;;;;3.30;2.97;;;25.80;47.50;;;;;;5026002;28;20465;-68
2023/06/07 02:12:23;;;;;;;3.30;3.00;;;25.80;47.50;;;;;;5028505;28;20446;-68
2023/06/07 02:14:52;;;;;;;3.77;3.47;;;25.80;47.50;;;;;;5025936;28;20955;-68
2023/06/07 02:17:21;;;;;;;3.73;3.43;;;25.80;47.40;;;;;;5021695;28;20847;-68
2023/06/07 02:19:50;;;;;;;3.67;3.37;;;25.80;47.50;;;;;;5024282;28;20495;-68
2023/06/07 02:22:18;;;;;;;3.87;3.47;;;25.80;47.50;;;;;;5034545;28;20510;-68
2023/06/07 02:24:47;;;;;;;3.40;3.10;;;25.70;47.60;;;;;;5023362;28;20471;-68
2023/06/07 02:27:15;;;;;;;3.20;2.90;;;25.70;47.50;;;;;;5028054;28;20484;-68
2023/06/07 02:29:47;;;;;;;3.40;3.20;;;25.70;47.60;;;;;;5038258;28;20812;-68
2023/06/07 02:32:15;;;;;;;3.00;2.80;;;25.70;47.70;;;;;;5042307;28;20460;-69
2023/06/07 02:34:44;;;;;;;3.40;3.03;;;25.70;47.60;;;;;;5019205;28;20728;-68
2023/06/07 02:37:12;;;;;;;3.07;2.87;;;25.70;47.80;;;;;;5037609;28;20535;-68
2023/06/07 02:39:41;;;;;;;3.70;3.40;;;25.70;47.70;;;;;;5017279;28;20467;-69
2023/06/07 02:42:09;;;;;;;3.67;3.37;;;25.70;47.70;;;;;;5019636;28;20511;-68
2023/06/07 02:44:37;;;;;;;3.83;3.53;;;25.70;47.60;;;;;;5027213;28;20851;-69
2023/06/07 02:47:08;;;;;;;4.13;3.27;;;25.70;48.90;;;;;;5041296;28;20522;-68
2023/06/07 02:49:36;;;;;;;3.13;2.83;;;25.70;47.80;;;;;;5012355;28;20474;-68
2023/06/07 02:52:06;;;;;;;3.30;3.00;;;25.70;47.80;;;;;;5043585;28;20936;-68
2023/06/07 02:54:36;;;;;;;3.63;3.13;;;25.70;47.90;;;;;;5042978;28;20451;-68
2023/06/07 02:57:05;;;;;;;2.50;2.30;;;25.70;47.80;;;;;;5011043;28;20448;-69
2023/06/07 02:59:33;;;;;;;3.30;2.90;;;25.70;47.90;;;;;;5018673;28;20434;-67
2023/06/07 03:02:02;;;;;;;3.17;2.97;;;25.70;47.90;;;;;;5036442;28;20499;-68
2023/06/07 03:04:33;;;;;;;3.60;3.30;;;25.70;49.30;;;;;;5018363;28;21041;-68
2023/06/07 03:07:02;;;;;;;3.40;3.13;;;25.70;48.00;;;;;;5018797;28;21002;-68
2023/06/07 03:09:37;;;;;;;3.10;2.90;;;25.70;48.00;;;;;;5008608;28;20488;-69
2023/06/07 03:12:06;;;;;;;3.77;3.47;;;25.70;48.10;;;;;;5031218;28;20852;-68
2023/06/07 03:14:42;;;;;;;2.80;2.60;;;25.70;48.00;;;;;;5038628;28;20453;-68
2023/06/07 03:17:14;;;;;;;4.20;3.20;;;25.70;49.10;;;;;;5032394;28;20469;-68
2023/06/07 03:19:47;;;;;;;3.60;3.30;;;25.70;47.80;;;;;;5021595;28;20471;-69
2023/06/07 03:22:16;;;;;;;3.27;2.97;;;25.70;47.90;;;;;;5025409;28;20448;-67
2023/06/07 03:24:45;;;;;;;3.63;3.33;;;25.60;47.80;;;;;;5026833;28;20484;-68
2023/06/07 03:27:15;;;;;;;3.37;3.17;;;25.60;48.00;;;;;;5028632;28;20481;-68
2023/06/07 03:29:44;;;;;;;4.90;3.17;;;25.60;47.90;;;;;;5025600;28;21022;-68
2023/06/07 03:32:13;;;;;;;2.57;2.37;;;25.60;47.80;;;;;;5028004;28;20453;-66
2023/06/07 03:34:42;;;;;;;5.10;3.00;;;25.60;47.80;;;;;;5021086;28;20466;-68
2023/06/07 03:37:12;;;;;;;3.93;3.20;;;25.60;47.90;;;;;;5019005;28;20442;-67
2023/06/07 03:39:41;;;;;;;3.50;3.20;;;25.60;48.10;;;;;;5025796;28;21007;-68
2023/06/07 03:42:10;;;;;;;3.13;2.83;;;25.60;48.10;;;;;;5029422;28;20559;-67
2023/06/07 03:44:41;;;;;;;3.67;3.37;;;25.60;48.10;;;;;;5023517;28;20455;-68
2023/06/07 03:47:10;;;;;;;3.27;3.00;;;25.60;48.20;;;;;;5024423;28;20479;-68
2023/06/07 03:49:38;;;;;;;7.67;3.70;;;25.60;48.10;;;;;;5029523;28;20486;-68
2023/06/07 03:52:08;;;;;;;3.60;3.30;;;25.60;48.00;;;;;;5020886;28;20452;-67
2023/06/07 03:54:37;;;;;;;4.37;3.53;;;25.60;48.20;;;;;;5025593;28;20467;-69
2023/06/07 03:57:07;;;;;;;3.40;3.10;;;25.50;48.10;;;;;;5027008;28;20446;-68
2023/06/07 03:59:40;;;;;;;6.90;3.40;;;25.60;48.10;;;;;;5028705;28;20561;-68
2023/06/07 04:02:10;;;;;;;4.20;3.80;;;25.60;48.10;;;;;;5027357;28;20528;-67
2023/06/07 04:04:38;;;;;;;4.30;3.90;;;25.50;48.10;;;;;;5037776;28;20459;-68
2023/06/07 04:07:08;;;;;;;3.37;3.07;;;25.60;48.20;;;;;;5030455;28;20475;-66
2023/06/07 04:09:41;;;;;;;4.10;3.00;;;25.50;48.20;;;;;;5022296;28;20807;-68
2023/06/07 04:12:10;;;;;;;4.60;3.23;;;25.60;48.30;;;;;;5032206;28;20982;-68
2023/06/07 04:14:38;;;;;;;3.50;3.20;;;25.50;48.30;;;;;;5034019;28;20471;-67
2023/06/07 04:17:07;;;;;;;2.93;2.73;;;25.50;48.30;;;;;;5031537;28;20792;-69
2023/06/07 04:19:36;;;;;;;4.40;3.20;;;25.50;48.30;;;;;;5014242;28;20454;-67
2023/06/07 04:22:16;;;;;;;5.00;3.90;;;25.50;48.40;;;;;;5023055;28;20537;-67
2023/06/07 04:24:46;;;;;;;4.53;3.10;;;25.50;48.20;;;;;;5025968;28;20475;-68
2023/06/07 04:27:18;;;;;;;4.40;3.07;;;25.50;48.30;;;;;;5040087;28;20501;-68
2023/06/07 04:29:48;;;;;;;3.17;2.77;;;25.50;48.60;;;;;;5025020;28;20458;-67
2023/06/07 04:32:19;;;;;;;3.47;3.27;;;25.50;48.60;;;;;;5023777;28;20438;-68
2023/06/07 04:34:51;;;;;;;4.03;3.63;;;25.50;48.50;;;;;;5027040;28;20471;-66
2023/06/07 04:37:20;;;;;;;4.60;3.20;;;25.40;48.30;;;;;;5012345;28;20463;-68
2023/06/07 04:39:55;;;;;;;4.10;3.70;;;25.40;48.40;;;;;;5025953;28;20470;-68
2023/06/07 04:42:25;;;;;;;4.13;3.60;;;25.40;48.50;;;;;;5034422;28;20520;-68
2023/06/07 04:44:54;;;;;;;4.37;3.60;;;25.50;48.50;;;;;;5043015;28;20506;-67
2023/06/07 04:47:24;;;;;;;4.00;3.60;;;25.40;48.40;;;;;;5026620;28;20995;-68
2023/06/07 04:49:53;;;;;;;3.77;3.50;;;25.40;49.60;;;;;;5037024;28;20482;-68
2023/06/07 04:52:24;;;;;;;3.70;3.40;;;25.40;48.40;;;;;;5034561;28;20898;-67
2023/06/07 04:55:04;;;;;;;3.50;3.20;;;25.40;48.60;;;;;;5026205;28;20573;-67
2023/06/07 04:57:33;;;;;;;3.77;3.47;;;25.40;48.80;;;;;;5021579;28;20434;-68
2023/06/07 05:00:06;;;;;;;4.47;3.10;;;25.40;49.00;;;;;;5027168;28;20562;-68
2023/06/07 05:02:44;;;;;;;4.40;3.90;;;25.40;48.90;;;;;;5023784;28;20505;-68
2023/06/07 05:05:15;;;;;;;3.47;3.17;;;25.40;48.90;;;;;;5031677;28;20485;-68
2023/06/07 05:07:44;;;;;;;3.70;3.27;;;25.40;48.70;;;;;;5013611;28;20470;-66
2023/06/07 05:10:14;;;;;;;3.70;3.40;;;25.40;48.90;;;;;;5015582;28;20486;-68
2023/06/07 05:12:43;;;;;;;4.40;4.00;;;25.40;49.00;;;;;;5029192;28;20975;-68
2023/06/07 05:15:14;;;;;;;3.30;2.83;;;25.40;49.00;;;;;;5021093;28;20555;-68
2023/06/07 05:17:45;;;;;;;3.27;2.97;;;25.40;49.20;;;;;;5034981;28;20458;-68
2023/06/07 05:20:15;;;;;;;4.33;3.50;;;25.40;49.20;;;;;;5017627;28;20529;-67
2023/06/07 05:22:45;;;;;;;3.80;3.50;;;25.40;49.10;;;;;;5021160;28;20546;-68
2023/06/07 05:25:15;;;;;;;3.20;2.90;;;25.40;49.00;;;;;;5014679;28;20525;-67
2023/06/07 05:27:43;;;;;;;3.80;3.50;;;25.40;49.10;;;;;;5023285;28;20449;-68
2023/06/07 05:30:12;;;;;;;3.40;3.10;;;25.40;49.20;;;;;;5003084;28;20454;-66
2023/06/07 05:32:41;;;;;;;3.10;2.80;;;25.30;49.30;;;;;;5033161;28;20951;-67
2023/06/07 05:35:09;;;;;;;3.33;3.03;;;25.30;49.40;;;;;;5024816;28;20571;-68
2023/06/07 05:37:38;;;;;;;3.43;3.13;;;25.30;49.40;;;;;;5029075;28;20562;-66
2023/06/07 05:40:10;;;;;;;3.70;3.40;;;25.40;49.70;;;;;;5028532;28;20473;-67
2023/06/07 05:42:40;;;;;;;4.97;3.53;;;25.30;49.40;;;;;;5034049;28;20520;-68
2023/06/07 05:45:10;;;;;;;4.33;3.63;;;25.30;49.20;;;;;;5024913;28;20462;-68
2023/06/07 05:47:38;;;;;;;5.03;3.67;;;25.30;49.20;;;;;;5033092;28;21052;-69
2023/06/07 05:50:08;;;;;;;5.00;4.17;;;25.30;49.30;;;;;;5024295;28;20959;-68
2023/06/07 05:52:36;;;;;;;3.93;3.53;;;25.30;49.30;;;;;;5015270;28;20547;-68
2023/06/07 05:55:05;;;;;;;4.33;3.80;;;25.30;49.30;;;;;;5033615;28;20890;-67
2023/06/07 05:57:35;;;;;;;3.73;3.23;;;25.30;49.30;;;;;;5026323;28;20426;-68
2023/06/07 06:00:10;;;;;;;4.70;4.20;;;25.30;49.30;;;;;;5033655;28;20469;-68
2023/06/07 06:02:42;;;;;;;4.80;3.10;;;25.30;49.30;;;;;;5029668;28;20442;-68
2023/06/07 06:05:12;;;;;;;4.87;3.67;;;25.30;49.40;;;;;;5015055;28;20486;-67
2023/06/07 06:07:40;;;;;;;4.30;3.67;;;25.20;49.40;;;;;;5015852;28;20450;-68
2023/06/07 06:10:09;;;;;;;4.40;4.00;;;25.30;49.40;;;;;;5034537;28;20477;-66
2023/06/07 06:12:37;;;;;;;4.23;3.57;;;25.20;49.40;;;;;;5021237;28;20561;-68
2023/06/07 06:15:08;;;;;;;4.33;3.50;;;25.20;49.50;;;;;;5020135;28;20572;-66
2023/06/07 06:17:36;;;;;;;4.43;3.07;;;25.20;49.50;;;;;;5038128;28;20437;-66
2023/06/07 06:20:07;;;;;;;4.73;4.33;;;25.30;49.60;;;;;;5023666;28;20920;-67
2023/06/07 06:22:36;;;;;;;4.10;3.70;;;25.20;49.60;;;;;;5015547;28;20441;-68
2023/06/07 06:25:05;;;;;;;4.13;3.80;;;25.20;49.80;;;;;;5013160;28;21056;-68
2023/06/07 06:27:33;;;;;;;3.90;3.50;;;25.20;49.70;;;;;;5026710;28;20786;-68
2023/06/07 06:30:02;;;;;;;5.53;4.27;;;25.20;49.70;;;;;;5030345;28;20468;-67
2023/06/07 06:32:32;;;;;;;5.03;3.10;;;25.20;49.50;;;;;;5015055;28;20544;-68
2023/06/07 06:35:00;;;;;;;4.90;2.73;;;25.20;49.70;;;;;;5020965;28;20479;-66
2023/06/07 06:37:28;;;;;;;3.50;2.87;;;25.20;50.00;;;;;;5042278;28;20426;-68
2023/06/07 06:39:57;;;;;;;4.70;3.67;;;25.20;50.00;;;;;;5027970;28;20905;-68
2023/06/07 06:42:25;;;;;;;4.07;3.40;;;25.20;50.00;;;;;;5023049;28;20957;-68
2023/06/07 06:45:10;;;;;;;15.70;10.10;;;25.20;50.00;;;;;;5032852;28;20810;-69
2023/06/07 06:47:41;;;;;;;9.97;7.33;;;25.00;47.50;;;;;;5038420;28;20452;-69
2023/06/07 06:50:11;;;;;;;7.10;5.90;;;24.70;48.90;;;;;;5023958;28;21000;-67
2023/06/07 06:53:00;;;;;;;8.93;6.17;;;24.70;49.50;;;;;;5021240;28;20429;-68
2023/06/07 06:55:28;;;;;;;6.77;5.90;;;24.70;49.70;;;;;;5023987;28;20525;-68
2023/06/07 06:57:57;;;;;;;5.40;5.00;;;24.80;49.90;;;;;;5026917;28;20459;-68
2023/06/07 07:00:25;;;;;;;7.23;6.07;;;24.80;49.80;;;;;;5015481;28;20478;-68
2023/06/07 07:02:56;;;;;;;6.30;4.60;;;24.90;49.80;;;;;;5024700;28;20490;-68
2023/06/07 07:05:24;;;;;;;7.50;5.07;;;24.90;49.70;;;;;;5031174;28;20868;-68
2023/06/07 07:07:57;;;;;;;5.23;4.70;;;24.90;49.70;;;;;;5036639;28;20448;-68
2023/06/07 07:10:25;;;;;;;14.77;5.63;;;24.90;50.90;;;;;;5028955;28;20475;-67
2023/06/07 07:12:54;;;;;;;9.40;5.80;;;24.90;49.50;;;;;;5020185;28;20443;-68
2023/06/07 07:15:22;;;;;;;10.03;6.07;;;24.90;49.80;;;;;;5021863;28;20461;-67
2023/06/07 07:17:51;;;;;;;9.43;6.00;;;24.90;49.70;;;;;;5022405;28;20456;-68
2023/06/07 07:20:22;;;;;;;8.10;5.27;;;24.90;49.70;;;;;;5021313;28;20470;-68
2023/06/07 07:22:50;;;;;;;9.10;5.53;;;24.90;49.70;;;;;;5035007;28;20813;-67
2023/06/07 07:25:19;;;;;;;14.03;5.63;;;25.00;49.80;;;;;;5021679;28;20580;-68
2023/06/07 07:27:47;;;;;;;10.40;6.37;;;25.00;49.70;;;;;;5036372;28;20960;-66
2023/06/07 07:30:16;;;;;;;9.17;4.93;;;25.00;49.70;;;;;;5021367;28;20473;-68
2023/06/07 07:32:44;;;;;;;6.57;5.50;;;25.00;49.80;;;;;;5032356;28;20450;-68
2023/06/07 07:35:13;;;;;;;7.90;5.30;;;25.00;49.70;;;;;;5023226;28;20548;-67
2023/06/07 07:37:44;;;;;;;6.23;5.23;;;25.00;49.70;;;;;;5015316;28;20445;-67
2023/06/07 07:40:13;;;;;;;8.00;5.33;;;25.00;49.70;;;;;;5016751;28;20466;-67
2023/06/07 07:42:41;;;;;;;7.03;5.03;;;25.00;49.70;;;;;;5027434;28;20755;-68
2023/06/07 07:45:10;;;;;;;4.80;4.30;;;25.00;49.70;;;;;;5011609;28;20474;-66
2023/06/07 07:47:39;;;;;;;5.43;4.80;;;25.00;49.90;;;;;;5015083;28;20524;-66
2023/06/07 07:50:08;;;;;;;5.27;4.73;;;25.00;49.80;;;;;;5017517;28;21031;-66
2023/06/07 07:52:36;;;;;;;8.33;4.70;;;25.00;49.90;;;;;;5022511;28;20440;-71
2023/06/07 07:55:09;;;;;;;7.17;5.17;;;25.00;49.90;;;;;;5015837;28;20476;-71
2023/06/07 07:57:37;;;;;;;6.10;5.53;;;25.00;49.90;;;;;;5020970;28;20454;-71
2023/06/07 08:00:09;;;;;;;5.20;4.67;;;25.00;49.90;;;;;;5037792;28;20488;-71
2023/06/07 08:02:40;;;;;;;5.90;4.70;;;24.90;49.80;;;;;;5019971;28;20538;-70
2023/06/07 08:05:09;;;;;;;4.83;4.33;;;25.00;50.00;;;;;;5039458;28;20470;-71
2023/06/07 08:07:38;;;;;;;4.93;4.20;;;24.90;50.10;;;;;;5037256;28;20429;-71
2023/06/07 08:10:09;;;;;;;4.63;4.23;;;24.90;50.00;;;;;;5027536;28;20476;-71
2023/06/07 08:12:37;;;;;;;5.23;4.33;;;25.00;50.10;;;;;;5038306;28;20911;-71
2023/06/07 08:15:06;;;;;;;4.87;3.87;;;24.90;50.10;;;;;;5022427;28;20503;-71
2023/06/07 08:17:34;;;;;;;5.13;4.20;;;24.90;50.00;;;;;;5015881;28;20480;-71
2023/06/07 08:20:04;;;;;;;5.77;4.50;;;25.00;50.20;;;;;;5019708;28;20464;-71
2023/06/07 08:22:33;;;;;;;6.43;4.90;;;24.90;50.10;;;;;;5023001;28;20517;-71
2023/06/07 08:25:02;;;;;;;5.17;4.67;;;24.90;50.20;;;;;;5026969;28;20836;-71
2023/06/07 08:27:31;;;;;;;6.17;5.33;;;24.90;50.20;;;;;;5021335;28;20515;-70
2023/06/07 08:30:00;;;;;;;5.47;4.23;;;24.90;50.20;;;;;;5038673;28;20559;-71
2023/06/07 08:32:28;;;;;;;5.00;4.50;;;24.90;50.30;;;;;;5032683;28;20525;-71
2023/06/07 08:34:57;;;;;;;6.53;4.70;;;24.90;50.20;;;;;;5024406;28;20522;-70
2023/06/07 08:37:25;;;;;;;4.97;4.47;;;24.90;50.20;;;;;;5013898;28;20440;-71
2023/06/07 08:39:53;;;;;;;5.50;4.50;;;24.90;50.30;;;;;;5026152;28;20477;-71
2023/06/07 08:42:21;;;;;;;4.73;4.27;;;24.90;50.40;;;;;;5036781;28;20528;-71
2023/06/07 08:44:52;;;;;;;5.27;4.23;;;24.90;50.40;;;;;;5023658;28;20547;-71
2023/06/07 08:47:22;;;;;;;5.23;4.60;;;24.90;50.40;;;;;;5026126;28;20476;-71
2023/06/07 08:49:56;;;;;;;5.07;4.50;;;24.90;50.30;;;;;;5015923;28;21069;-71
2023/06/07 08:52:25;;;;;;;6.13;4.80;;;24.90;50.30;;;;;;5037197;28;20855;-70
2023/06/07 08:54:58;;;;;;;4.50;4.07;;;24.90;50.50;;;;;;5029568;28;20490;-72
2023/06/07 08:57:29;;;;;;;5.90;4.30;;;24.90;50.50;;;;;;5014010;28;20809;-71
2023/06/07 09:00:02;;;;;;;6.37;4.30;;;24.90;50.50;;;;;;5022296;28;20903;-71
2023/06/07 09:02:31;;;;;;;5.13;4.20;;;24.90;50.50;;;;;;5039861;28;20462;-71
2023/06/07 09:05:02;;;;;;;4.73;4.33;;;24.90;50.50;;;;;;5015416;28;20901;-69
2023/06/07 09:07:31;;;;;;;4.80;4.30;;;24.90;50.50;;;;;;5043015;28;20473;-68
2023/06/07 09:10:00;;;;;;;4.40;4.00;;;24.90;50.50;;;;;;5043209;28;20509;-68
2023/06/07 09:12:28;;;;;;;5.17;4.63;;;24.90;50.60;;;;;;5039347;28;20481;-67
2023/06/07 09:14:57;;;;;;;6.00;4.57;;;24.90;50.60;;;;;;5012595;28;20950;-68
2023/06/07 09:17:50;;;;;;;5.00;4.50;;;24.90;50.60;;;;;;5033101;28;20445;-66
2023/06/07 09:20:20;;;;;;;5.53;5.03;;;24.90;50.70;;;;;;5028038;28;20551;-68
2023/06/07 09:23:00;;;;;;;5.77;5.27;;;24.90;50.70;;;;;;5019428;28;20500;-67
2023/06/07 09:25:30;;;;;;;4.63;3.90;;;24.90;50.70;;;;;;5039988;28;21104;-68
2023/06/07 09:27:58;;;;;;;5.47;4.97;;;24.90;50.80;;;;;;5039208;28;20461;-71
2023/06/07 09:30:27;;;;;;;5.93;4.50;;;24.90;50.80;;;;;;5021395;28;20480;-71
2023/06/07 09:32:57;;;;;;;6.23;4.20;;;24.90;50.80;;;;;;5024561;28;20519;-72
2023/06/07 09:35:26;;;;;;;5.40;4.33;;;24.80;50.80;;;;;;5035924;28;20562;-70
2023/06/07 09:37:54;;;;;;;7.73;5.07;;;24.90;50.80;;;;;;5031061;28;20520;-70
2023/06/07 09:40:24;;;;;;;7.57;4.70;;;24.80;50.70;;;;;;5034399;28;20508;-71
2023/06/07 09:43:00;;;;;;;6.93;4.30;;;24.80;50.80;;;;;;5022332;28;20450;-71
2023/06/07 09:45:28;;;;;;;4.90;3.90;;;24.80;50.80;;;;;;5014676;28;20474;-71
2023/06/07 09:48:07;;;;;;;5.27;3.77;;;24.80;50.80;;;;;;5020916;28;20446;-71
2023/06/07 09:50:36;;;;;;;4.20;3.80;;;24.80;50.80;;;;;;5018285;28;20482;-71
2023/06/07 09:53:04;;;;;;;4.93;4.20;;;24.80;51.00;;;;;;5020093;28;20456;-70
2023/06/07 09:55:32;;;;;;;5.30;4.60;;;24.80;50.80;;;;;;5020719;28;20555;-71
2023/06/07 09:58:01;;;;;;;4.70;4.20;;;24.80;50.80;;;;;;5033412;28;20455;-70
2023/06/07 10:00:29;;;;;;;6.80;5.47;;;24.80;50.90;;;;;;5035393;28;20511;-71
2023/06/07 10:03:06;;;;;;;7.43;5.10;;;24.80;50.00;;;;;;5017392;28;20453;-71
2023/06/07 10:05:35;;;;;;;9.60;5.50;;;24.70;50.40;;;;;;5010044;28;21112;-71
2023/06/07 10:08:05;;;;;;;6.53;4.67;;;24.70;50.60;;;;;;5008124;28;21014;-70
2023/06/07 10:10:35;;;;;;;5.50;4.97;;;24.70;50.70;;;;;;5025983;28;20999;-71
2023/06/07 10:13:05;;;;;;;7.13;4.90;;;24.70;50.60;;;;;;5013955;28;20436;-71
2023/06/07 10:15:36;;;;;;;7.73;5.37;;;24.70;50.70;;;;;;5017511;28;20896;-71
2023/06/07 10:18:16;;;;;;;6.20;4.57;;;24.70;50.60;;;;;;5009605;28;20463;-71
2023/06/07 10:20:53;;;;;;;5.07;4.63;;;24.80;50.80;;;;;;5021105;28;20774;-70
2023/06/07 10:23:32;;;;;;;6.87;4.80;;;24.80;50.70;;;;;;5038335;28;20462;-71
2023/06/07 10:26:05;;;;;;;6.63;5.23;;;24.70;50.60;;;;;;5034107;28;20478;-71
2023/06/07 10:28:40;;;;;;;5.00;4.37;;;24.70;50.70;;;;;;5033830;28;20453;-71
2023/06/07 10:31:13;;;;;;;4.50;4.10;;;24.70;50.70;;;;;;5012981;28;20697;-70
2023/06/07 10:33:45;;;;;;;5.37;4.87;;;24.80;50.80;;;;;;5031759;28;20479;-71
2023/06/07 10:36:15;;;;;;;5.30;4.73;;;24.80;50.90;;;;;;5022074;28;20464;-71
2023/06/07 10:38:45;;;;;;;3.93;3.53;;;24.80;50.80;;;;;;5040220;28;20942;-66
2023/06/07 10:41:14;;;;;;;5.60;5.10;;;24.80;50.90;;;;;;5020000;28;21118;-68
2023/06/07 10:43:46;;;;;;;6.00;4.20;;;24.80;50.90;;;;;;5024990;28;20782;-66
2023/06/07 10:46:19;;;;;;;5.23;4.57;;;24.80;50.90;;;;;;5021887;28;20469;-68
2023/06/07 10:48:50;;;;;;;5.03;4.63;;;24.80;50.80;;;;;;5024360;28;20441;-67
2023/06/07 10:51:39;;;;;;;4.70;4.17;;;24.80;50.90;;;;;;5037297;28;20546;-67
2023/06/07 10:54:08;;;;;;;4.63;4.23;;;24.80;50.90;;;;;;5019122;28;20500;-67
2023/06/07 10:56:37;;;;;;;4.73;4.33;;;24.70;50.90;;;;;;5020796;28;20989;-68
2023/06/07 10:59:22;;;;;;;7.00;4.40;;;24.70;52.10;;;;;;5025452;28;20436;-67
2023/06/07 11:01:54;;;;;;;5.47;5.07;;;24.70;50.90;;;;;;5041330;28;20445;-68
2023/06/07 11:04:58;;;;;;;5.90;5.40;;;24.70;50.90;;;;;;5022099;28;21034;-68
2023/06/07 11:07:28;;;;;;;4.40;4.10;;;24.70;51.00;;;;;;5025395;28;20952;-67
2023/06/07 11:10:41;;;;;;;6.20;5.10;;;24.70;51.00;;;;;;5040078;28;20516;-66
2023/06/07 11:13:10;;;;;;;7.23;5.07;;;24.70;51.10;;;;;;5016539;28;20555;-67
2023/06/07 11:15:38;;;;;;;7.00;5.47;;;24.70;51.10;;;;;;5017252;28;20538;-66
2023/06/07 11:18:08;;;;;;;5.00;4.50;;;24.70;51.10;;;;;;5038904;28;20444;-67
2023/06/07 11:20:52;;;;;;;5.40;4.63;;;24.70;51.10;;;;;;5028188;28;20486;-67
2023/06/07 11:23:22;;;;;;;4.80;4.40;;;24.70;51.20;;;;;;5031636;28;20437;-68
2023/06/07 11:25:52;;;;;;;7.63;4.70;;;24.70;51.30;;;;;;5019374;28;21255;-68
2023/06/07 11:28:24;;;;;;;6.80;5.20;;;24.70;51.30;;;;;;5011879;28;20466;-70
2023/06/07 11:30:53;;;;;;;6.50;4.40;;;24.70;51.20;;;;;;5026700;28;20466;-71
2023/06/07 11:33:22;;;;;;;6.30;5.10;;;24.70;51.30;;;;;;5011565;28;20976;-70
2023/06/07 11:35:53;;;;;;;6.10;4.73;;;24.70;51.30;;;;;;5021256;28;20854;-71
2023/06/07 11:38:22;;;;;;;5.37;4.90;;;24.70;51.30;;;;;;5019090;28;20951;-71
2023/06/07 11:40:50;;;;;;;6.20;4.43;;;24.70;52.00;;;;;;5021610;28;20546;-71
2023/06/07 11:43:22;;;;;;;5.30;4.70;;;24.70;51.20;;;;;;5026216;28;20471;-71
2023/06/07 11:45:51;;;;;;;5.57;4.70;;;24.70;51.20;;;;;;5017542;28;20485;-71
2023/06/07 11:48:19;;;;;;;5.50;4.97;;;24.70;51.20;;;;;;5016159;28;20487;-70
2023/06/07 11:50:49;;;;;;;6.33;5.73;;;24.70;51.20;;;;;;5025309;28;20581;-71
2023/06/07 11:53:18;;;;;;;5.53;5.03;;;24.70;51.20;;;;;;5037012;28;20515;-71
2023/06/07 11:55:47;;;;;;;5.17;4.67;;;24.70;51.20;;;;;;5036436;28;20487;-70
2023/06/07 11:58:16;;;;;;;5.80;5.30;;;24.70;51.20;;;;;;5025263;28;20450;-71
2023/06/07 12:00:45;;;;;;;5.53;4.90;;;24.70;51.30;;;;;;5025221;28;20892;-70
2023/06/07 12:03:16;;;;;;;5.73;5.13;;;24.70;51.30;;;;;;5028186;28;20463;-71
2023/06/07 12:05:45;;;;;;;5.20;4.77;;;24.70;51.20;;;;;;5028907;28;20473;-70
2023/06/07 12:08:16;;;;;;;5.27;4.77;;;24.70;51.30;;;;;;5036638;28;20450;-71
2023/06/07 12:10:54;;;;;;;4.83;4.43;;;24.70;51.30;;;;;;5020145;28;20847;-71
2023/06/07 12:13:23;;;;;;;5.13;4.60;;;24.70;51.20;;;;;;5018496;28;20817;-70
2023/06/07 12:15:55;;;;;;;6.40;5.80;;;24.70;51.30;;;;;;5031012;28;20517;-71
2023/06/07 12:18:26;;;;;;;6.07;5.47;;;24.70;51.30;;;;;;5022423;28;20454;-71
2023/06/07 12:21:03;;;;;;;6.03;4.40;;;24.70;51.20;;;;;;5034309;28;20469;-71
2023/06/07 12:23:32;;;;;;;5.83;5.10;;;24.70;51.20;;;;;;5021008;28;20954;-71
2023/06/07 12:26:09;;;;;;;5.20;4.70;;;24.70;51.30;;;;;;5041599;28;20486;-71
2023/06/07 12:28:40;;;;;;;5.40;4.80;;;24.70;51.30;;;;;;5022175;28;20482;-71
2023/06/07 12:31:16;;;;;;;4.87;4.37;;;24.70;51.40;;;;;;5022124;28;20491;-71
2023/06/07 12:33:55;;;;;;;4.67;4.20;;;24.70;51.30;;;;;;5027992;28;20479;-71
2023/06/07 12:36:26;;;;;;;7.00;5.63;;;24.70;51.40;;;;;;5025805;28;21102;-71
2023/06/07 12:38:58;;;;;;;6.00;5.33;;;24.70;51.20;;;;;;5025997;28;20952;-71
2023/06/07 12:41:28;;;;;;;4.90;4.50;;;24.70;51.30;;;;;;5042624;28;20969;-71
2023/06/07 12:43:59;;;;;;;5.77;5.27;;;24.70;51.40;;;;;;5027759;28;21002;-72
2023/06/07 12:46:27;;;;;;;5.23;4.80;;;24.70;51.40;;;;;;5038307;28;20469;-71
2023/06/07 12:48:55;;;;;;;5.47;4.77;;;24.70;51.50;;;;;;5025086;28;20438;-71
2023/06/07 12:51:24;;;;;;;6.87;5.53;;;24.70;51.50;;;;;;5036561;28;20431;-71
2023/06/07 12:53:53;;;;;;;6.30;5.70;;;24.70;51.50;;;;;;5039330;28;20462;-71
2023/06/07 12:56:21;;;;;;;5.17;4.77;;;24.70;51.60;;;;;;5025335;28;20459;-71
2023/06/07 12:58:51;;;;;;;8.20;6.30;;;24.70;51.50;;;;;;5040942;28;20453;-71
2023/06/07 13:01:19;;;;;;;6.93;6.37;;;24.70;51.50;;;;;;5017172;28;20459;-71
2023/06/07 13:03:49;;;;;;;5.03;4.63;;;24.70;51.50;;;;;;5033428;28;20509;-71